Terminal Aerodrome Forecast
Issued by NWS

Home | Current Version | Previous Version | Graphics & Text | Print | Product List | Glossary On
Versions: 1 2 3 4 5 6 7 8 9 10 11 12 13 14
000
FTUS43 KTOP 202339
TAFMHK
TAF
KMHK 202339Z 2100/2124 17019G27KT P6SM SCT050
     FM210500 19020G28KT P6SM BKN080 WS020/19040KT
     FM211000 19020G28KT P6SM OVC015
     FM212000 20018KT 4SM TSRA BKN025CB
     FM212200 32011G22KT 6SM -SHRA VCTS BKN045CB=

USA.gov is the U.S. government's official web portal to all federal, state and local government web resources and services.